Time;durP1;ratioP1;P1;durP2;ratioP2;P2;SDS_P1;SDS_P2;PMS_P1;PMS_P2;Temp;Humidity;BMP_temperature;BMP_pressure;BME280_temperature;BME280_humidity;BME280_pressure;Samples;Min_cycle;Max_cycle;Signal;HPM_P1;HPM_P2
2023/03/23 00:01:49;;;;;;;2.83;1.60;;;;;;;12.53;64.96;99675.66;5026485;28;20254;-83
2023/03/23 00:04:15;;;;;;;1.60;1.40;;;;;;;12.63;64.50;99668.53;5023885;28;20199;-82
2023/03/23 00:06:40;;;;;;;2.30;1.40;;;;;;;12.60;64.40;99662.34;5011921;28;20207;-81
2023/03/23 00:09:06;;;;;;;3.40;1.47;;;;;;;12.68;64.21;99660.53;5026528;28;20204;-85
2023/03/23 00:11:32;;;;;;;2.23;1.50;;;;;;;12.65;64.36;99664.06;5028692;28;20226;-83
2023/03/23 00:14:00;;;;;;;2.17;1.30;;;;;;;12.64;64.25;99664.97;5027498;28;20202;-82
2023/03/23 00:16:38;;;;;;;3.20;1.70;;;;;;;12.63;64.30;99667.63;5031212;28;20261;-82
2023/03/23 00:19:05;;;;;;;2.80;1.30;;;;;;;12.63;64.17;99657.91;5027457;28;20290;-80
2023/03/23 00:21:34;;;;;;;2.87;1.40;;;;;;;12.68;64.20;99658.75;5025014;28;20219;-79
2023/03/23 00:24:05;;;;;;;1.87;1.40;;;;;;;12.72;63.86;99652.50;5026091;28;20569;-79
2023/03/23 00:26:33;;;;;;;1.93;1.13;;;;;;;12.73;63.77;99656.06;5030728;28;20196;-81
2023/03/23 00:29:00;;;;;;;4.23;1.80;;;;;;;12.74;63.61;99655.16;5026299;28;20204;-83
2023/03/23 00:31:32;;;;;;;2.23;1.57;;;;;;;12.76;63.81;99658.69;5024253;28;20902;-81
2023/03/23 00:34:00;;;;;;;2.33;1.50;;;;;;;12.71;63.78;99653.41;5032035;28;20196;-81
2023/03/23 00:36:26;;;;;;;2.77;1.80;;;;;;;12.70;63.99;99642.78;5030381;28;20664;-81
2023/03/23 00:38:52;;;;;;;5.17;1.50;;;;;;;12.76;63.25;99642.75;5024588;28;20242;-80
2023/03/23 00:41:17;;;;;;;1.93;1.40;;;;;;;12.90;63.15;99627.59;5027771;28;20312;-82
2023/03/23 00:43:43;;;;;;;1.80;1.33;;;;;;;12.86;63.53;99632.06;5021863;28;20204;-81
2023/03/23 00:46:09;;;;;;;1.83;1.30;;;;;;;12.75;63.54;99625.03;5029262;28;20210;-81
2023/03/23 00:48:44;;;;;;;1.67;1.20;;;;;;;12.68;64.50;99625.97;5029156;28;20294;-81
2023/03/23 00:51:10;;;;;;;2.53;1.40;;;;;;;12.61;65.32;99634.91;5021932;28;20210;-80
2023/03/23 00:53:35;;;;;;;5.57;1.37;;;;;;;12.57;65.75;99639.34;5023092;28;20258;-84
2023/03/23 00:56:01;;;;;;;3.50;1.90;;;;;;;12.51;66.79;99634.09;5028725;28;20655;-80
2023/03/23 00:58:26;;;;;;;1.90;1.43;;;;;;;12.57;67.64;99641.13;5012053;28;20200;-79
2023/03/23 01:00:51;;;;;;;1.77;1.40;;;;;;;12.64;66.19;99641.06;5020512;28;20226;-82
2023/03/23 01:03:18;;;;;;;3.77;1.90;;;;;;;12.53;66.92;99633.19;5006414;28;20222;-80
2023/03/23 01:05:46;;;;;;;2.50;1.97;;;;;;;12.48;67.03;99634.97;5028799;28;20218;-81
2023/03/23 01:08:13;;;;;;;3.43;2.00;;;;;;;12.34;68.13;99634.16;5025110;28;20587;-83
2023/03/23 01:10:39;;;;;;;4.97;2.10;;;;;;;12.32;68.87;99635.94;5024124;28;20216;-82
2023/03/23 01:13:06;;;;;;;5.30;2.63;;;;;;;12.38;68.79;99641.22;5024703;28;20545;-79
2023/03/23 01:15:31;;;;;;;6.10;2.50;;;;;;;12.27;68.86;99643.06;5027911;28;20198;-76
2023/03/23 01:17:57;;;;;;;4.13;2.67;;;;;;;12.26;69.36;99651.91;5019944;28;20213;-73
2023/03/23 01:20:24;;;;;;;6.37;2.60;;;;;;;12.22;69.94;99647.53;5028141;28;20313;-72
2023/03/23 01:22:50;;;;;;;4.73;2.50;;;;;;;12.15;70.28;99646.66;5025222;28;20198;-73
2023/03/23 01:25:15;;;;;;;4.03;2.40;;;;;;;12.08;71.04;99649.38;5021707;28;20195;-72
2023/03/23 01:27:41;;;;;;;4.13;2.63;;;;;;;11.98;71.71;99635.22;5021871;28;20241;-73
2023/03/23 01:30:11;;;;;;;3.70;2.57;;;;;;;11.96;71.50;99629.06;5005866;28;20191;-73
2023/03/23 01:32:36;;;;;;;4.80;2.57;;;;;;;11.97;71.60;99629.94;5025502;28;20619;-73
2023/03/23 01:35:01;;;;;;;3.93;2.17;;;;;;;11.91;72.04;99625.53;5026653;28;20703;-72
2023/03/23 01:37:27;;;;;;;3.00;2.30;;;;;;;11.93;72.26;99616.69;5025328;28;20319;-73
2023/03/23 01:39:53;;;;;;;5.07;2.50;;;;;;;11.96;72.09;99606.94;5025331;28;20699;-72
2023/03/23 01:42:22;;;;;;;4.73;2.73;;;;;;;12.02;71.96;99599.88;5023549;28;20629;-74
2023/03/23 01:44:47;;;;;;;3.53;2.33;;;;;;;11.99;71.84;99612.22;5024091;28;20685;-72
2023/03/23 01:47:13;;;;;;;3.13;2.40;;;;;;;12.02;72.00;99605.16;5028028;28;20223;-73
2023/03/23 01:49:45;;;;;;;5.33;2.30;;;;;;;12.01;71.94;99603.41;5023888;28;20198;-72
2023/03/23 01:52:17;;;;;;;5.33;2.50;;;;;;;11.97;72.63;99609.59;5028188;28;20230;-74
2023/03/23 01:54:44;;;;;;;4.87;2.50;;;;;;;11.91;72.91;99605.19;5023531;28;20214;-72
2023/03/23 01:57:14;;;;;;;2.87;1.90;;;;;;;11.90;72.79;99618.47;5024149;28;20208;-71
2023/03/23 01:59:42;;;;;;;5.03;2.30;;;;;;;11.96;72.17;99622.88;5025933;28;20257;-72
2023/03/23 02:02:10;;;;;;;6.23;2.13;;;;;;;12.01;72.29;99605.16;5021307;28;20219;-75
2023/03/23 02:04:36;;;;;;;2.63;1.90;;;;;;;11.98;72.03;99603.38;5020280;28;20196;-76
2023/03/23 02:07:03;;;;;;;2.23;1.60;;;;;;;12.03;70.44;99601.63;5023657;28;20245;-74
2023/03/23 02:09:29;;;;;;;4.70;1.87;;;;;;;12.21;69.04;99600.63;5018812;28;20192;-74
2023/03/23 02:11:56;;;;;;;2.17;1.40;;;;;;;12.37;66.79;99596.97;5026120;28;20206;-73
2023/03/23 02:14:24;;;;;;;1.67;1.27;;;;;;;12.54;66.07;99599.53;5008872;28;20211;-74
2023/03/23 02:17:17;;;;;;;2.70;1.40;;;;;;;12.64;65.44;99587.06;5019866;28;20667;-73
2023/03/23 02:20:06;;;;;;;1.53;1.30;;;;;;;12.66;65.30;99579.94;5027383;28;20216;-73
2023/03/23 02:22:56;;;;;;;1.57;1.13;;;;;;;12.73;64.95;99579.88;5026714;28;20222;-73
2023/03/23 02:26:00;;;;;;;1.30;1.20;;;;;;;12.73;64.92;99586.97;5027698;28;20233;-73
2023/03/23 02:28:29;;;;;;;2.93;1.40;;;;;;;12.85;64.68;99586.91;5018027;28;20210;-73
2023/03/23 02:31:11;;;;;;;3.10;1.17;;;;;;;12.84;64.82;99585.13;5010224;28;20210;-75
2023/03/23 02:34:05;;;;;;;2.17;1.40;;;;;;;12.95;65.23;99590.34;5024089;28;20192;-74
2023/03/23 02:36:43;;;;;;;2.57;1.30;;;;;;;12.99;65.96;99582.31;5023839;28;20204;-73
2023/03/23 02:39:24;;;;;;;2.87;1.40;;;;;;;12.94;67.48;99576.16;5020352;28;20257;-73
2023/03/23 02:41:56;;;;;;;2.93;1.73;;;;;;;12.86;69.46;99570.06;5025386;28;20689;-73
2023/03/23 02:44:25;;;;;;;1.37;1.27;;;;;;;12.90;69.53;99568.25;5025446;28;20204;-73
2023/03/23 02:46:52;;;;;;;1.60;1.03;;;;;;;12.86;68.94;99567.41;5024276;28;20200;-73
2023/03/23 02:49:19;;;;;;;1.47;1.10;;;;;;;12.80;70.26;99570.97;5021781;28;20204;-75
2023/03/23 02:51:46;;;;;;;1.40;1.03;;;;;;;12.77;70.79;99562.13;5019557;28;20228;-75
2023/03/23 02:54:14;;;;;;;1.20;1.10;;;;;;;12.69;71.07;99564.88;5028374;28;20204;-75
2023/03/23 02:56:41;;;;;;;1.00;1.00;;;;;;;12.63;72.30;99567.56;5021642;28;20196;-74
2023/03/23 02:59:06;;;;;;;1.10;0.90;;;;;;;12.63;72.18;99564.91;5021369;28;20211;-76
2023/03/23 03:01:38;;;;;;;1.13;1.03;;;;;;;12.58;72.90;99565.84;5020533;28;20220;-75
2023/03/23 03:04:21;;;;;;;2.80;1.13;;;;;;;12.62;72.92;99552.53;5018875;28;20206;-74
2023/03/23 03:07:27;;;;;;;2.07;1.30;;;;;;;12.55;72.86;99554.38;5023432;28;20206;-75
2023/03/23 03:10:01;;;;;;;2.33;1.30;;;;;;;12.56;73.29;99541.97;5006688;28;20205;-73
2023/03/23 03:12:27;;;;;;;1.90;1.33;;;;;;;12.57;73.52;99549.03;5027357;28;20217;-73
2023/03/23 03:15:05;;;;;;;3.23;1.10;;;;;;;12.53;74.30;99555.28;5022898;28;20289;-73
2023/03/23 03:17:31;;;;;;;1.10;1.00;;;;;;;12.54;75.17;99557.91;5027372;28;20265;-74
2023/03/23 03:20:04;;;;;;;2.90;1.30;;;;;;;12.46;75.80;99556.22;5019615;28;20231;-73
2023/03/23 03:22:30;;;;;;;1.60;1.10;;;;;;;12.42;75.56;99558.03;5020322;28;20598;-74
2023/03/23 03:24:58;;;;;;;1.93;1.30;;;;;;;12.43;75.86;99554.47;5016244;28;20206;-73
2023/03/23 03:27:25;;;;;;;3.03;1.20;;;;;;;12.41;75.04;99552.72;5023814;28;20215;-77
2023/03/23 03:29:55;;;;;;;2.67;1.40;;;;;;;12.42;74.86;99563.34;5027014;28;20668;-74
2023/03/23 03:32:24;;;;;;;1.30;1.20;;;;;;;12.43;75.91;99557.13;5025775;28;20804;-73
2023/03/23 03:34:53;;;;;;;1.87;1.33;;;;;;;12.45;75.28;99557.13;5024341;28;20200;-71
2023/03/23 03:37:20;;;;;;;1.83;1.30;;;;;;;12.43;75.49;99546.50;5012616;28;20377;-73
2023/03/23 03:39:46;;;;;;;3.43;1.20;;;;;;;12.54;73.96;99555.25;5029621;28;20567;-71
2023/03/23 03:42:11;;;;;;;2.27;1.40;;;;;;;12.58;74.18;99550.81;5030016;28;20679;-74
2023/03/23 03:44:37;;;;;;;3.63;1.57;;;;;;;12.59;73.64;99549.91;5024560;28;20316;-76
2023/03/23 03:47:02;;;;;;;2.37;1.50;;;;;;;12.69;72.69;99553.34;5028225;28;20195;-75
2023/03/23 03:49:28;;;;;;;2.40;1.10;;;;;;;12.69;72.48;99556.00;5025044;28;20203;-74
2023/03/23 03:51:53;;;;;;;2.67;1.30;;;;;;;12.72;72.78;99556.00;5028765;28;20215;-71
2023/03/23 03:54:18;;;;;;;1.57;1.30;;;;;;;12.77;72.90;99557.69;5026526;28;20212;-71
2023/03/23 03:56:45;;;;;;;1.83;1.27;;;;;;;12.73;72.26;99555.97;5028427;28;20604;-72
2023/03/23 03:59:12;;;;;;;2.37;1.13;;;;;;;12.75;71.88;99558.63;5028292;28;20698;-71
2023/03/23 04:01:38;;;;;;;1.37;1.20;;;;;;;12.77;71.78;99556.81;5025717;28;20318;-72
2023/03/23 04:04:06;;;;;;;2.17;1.57;;;;;;;12.80;71.19;99554.13;5029361;28;20297;-75
2023/03/23 04:06:32;;;;;;;1.57;1.30;;;;;;;12.86;71.01;99549.69;5029685;28;20237;-75
2023/03/23 04:08:58;;;;;;;2.17;1.20;;;;;;;12.86;71.22;99562.97;5027400;28;20237;-71
2023/03/23 04:11:25;;;;;;;3.27;1.40;;;;;;;12.86;71.27;99568.28;5024589;28;20226;-73
2023/03/23 04:13:50;;;;;;;1.20;1.10;;;;;;;12.95;70.47;99582.38;5027991;28;20238;-73
2023/03/23 04:16:16;;;;;;;1.77;1.27;;;;;;;12.94;71.36;99584.16;5024420;28;20242;-73
2023/03/23 04:18:42;;;;;;;2.80;1.30;;;;;;;12.91;71.47;99589.50;5025341;28;20248;-73
2023/03/23 04:21:08;;;;;;;1.57;1.27;;;;;;;12.95;70.27;99585.91;5024367;28;20222;-74
2023/03/23 04:23:35;;;;;;;5.90;1.40;;;;;;;12.98;70.94;99587.66;5026515;28;20199;-73
2023/03/23 04:26:01;;;;;;;1.93;1.30;;;;;;;12.98;70.23;99598.28;5028566;28;20207;-73
2023/03/23 04:28:27;;;;;;;1.43;1.30;;;;;;;13.08;69.54;99594.63;5027774;28;20226;-73
2023/03/23 04:30:53;;;;;;;1.67;1.40;;;;;;;13.19;68.84;99590.13;5023293;28;20221;-73
2023/03/23 04:33:21;;;;;;;1.30;1.20;;;;;;;13.17;69.45;99594.56;5023005;28;20211;-72
2023/03/23 04:35:47;;;;;;;3.20;1.37;;;;;;;13.13;69.28;99591.03;5018112;28;20207;-75
2023/03/23 04:38:20;;;;;;;3.13;1.60;;;;;;;13.13;69.59;99593.69;5025645;28;20714;-73
2023/03/23 04:40:46;;;;;;;4.23;1.60;;;;;;;13.16;69.70;99598.97;5023875;28;20222;-73
2023/03/23 04:43:12;;;;;;;2.37;1.50;;;;;;;13.16;69.66;99593.66;5024724;28;20278;-71
2023/03/23 04:45:41;;;;;;;1.80;1.40;;;;;;;13.22;69.28;99591.91;5026439;28;20310;-73
2023/03/23 04:48:07;;;;;;;1.83;1.40;;;;;;;13.16;69.99;99598.97;5028072;28;20195;-73
2023/03/23 04:50:34;;;;;;;1.57;1.30;;;;;;;13.12;70.92;99591.94;5024868;28;20243;-71
2023/03/23 04:53:03;;;;;;;3.60;1.80;;;;;;;13.13;70.71;99591.03;5028888;28;20325;-77
2023/03/23 04:55:37;;;;;;;1.60;1.50;;;;;;;13.08;71.04;99590.19;5021346;28;20212;-71
2023/03/23 04:58:05;;;;;;;2.70;1.50;;;;;;;13.07;71.64;99585.78;5025909;28;20217;-73
2023/03/23 05:00:31;;;;;;;2.60;1.43;;;;;;;13.04;71.51;99593.78;5026764;28;20215;-70
2023/03/23 05:02:56;;;;;;;3.10;1.60;;;;;;;13.05;71.52;99599.97;5025675;28;20251;-70
2023/03/23 05:05:24;;;;;;;1.73;1.50;;;;;;;13.03;71.95;99597.34;5025887;28;20203;-71
2023/03/23 05:07:49;;;;;;;1.97;1.40;;;;;;;12.99;72.43;99605.38;5028484;28;20348;-73
2023/03/23 05:10:16;;;;;;;1.97;1.33;;;;;;;12.97;72.52;99605.38;5028237;28;20681;-70
2023/03/23 05:12:42;;;;;;;2.60;1.83;;;;;;;12.93;73.32;99608.97;5025821;28;20223;-72
2023/03/23 05:15:09;;;;;;;3.63;1.40;;;;;;;12.90;73.50;99611.66;5026903;28;20285;-71
2023/03/23 05:17:35;;;;;;;2.70;1.57;;;;;;;12.88;73.71;99604.59;5027257;28;20210;-71
2023/03/23 05:20:05;;;;;;;2.50;1.70;;;;;;;12.89;74.13;99609.00;5022700;28;20236;-71
2023/03/23 05:22:32;;;;;;;3.73;1.40;;;;;;;12.83;74.38;99613.47;5024365;28;20275;-72
2023/03/23 05:24:58;;;;;;;3.67;1.70;;;;;;;12.83;74.30;99600.19;5024608;28;20214;-71
2023/03/23 05:27:27;;;;;;;4.63;1.37;;;;;;;12.84;74.99;99596.63;5022798;28;20207;-73
2023/03/23 05:29:53;;;;;;;2.17;1.57;;;;;;;12.79;75.61;99600.19;5026014;28;20818;-71
2023/03/23 05:32:19;;;;;;;2.47;2.00;;;;;;;12.77;75.65;99608.19;5023331;28;20226;-72
2023/03/23 05:34:44;;;;;;;3.40;1.60;;;;;;;12.73;76.16;99601.13;5027303;28;20617;-74
2023/03/23 05:37:11;;;;;;;2.30;1.70;;;;;;;12.66;76.46;99595.88;5025421;28;20253;-73
2023/03/23 05:39:37;;;;;;;3.07;1.80;;;;;;;12.67;76.95;99601.19;5026637;28;20203;-74
2023/03/23 05:42:04;;;;;;;2.83;1.70;;;;;;;12.68;77.14;99616.22;5025813;28;20235;-76
2023/03/23 05:44:29;;;;;;;2.47;1.70;;;;;;;12.62;77.54;99607.44;5029579;28;20694;-72
2023/03/23 05:46:55;;;;;;;3.13;1.67;;;;;;;12.62;77.96;99623.38;5023264;28;20231;-72
2023/03/23 05:49:20;;;;;;;2.70;1.70;;;;;;;12.58;78.09;99630.50;5027717;28;20197;-72
2023/03/23 05:51:46;;;;;;;2.20;1.60;;;;;;;12.61;78.10;99638.44;5009255;28;20279;-72
2023/03/23 05:54:13;;;;;;;2.03;1.80;;;;;;;12.59;78.29;99636.69;5025067;28;20840;-72
2023/03/23 05:56:38;;;;;;;2.87;1.97;;;;;;;12.56;78.49;99629.63;5022207;28;20273;-73
2023/03/23 05:59:06;;;;;;;4.60;1.90;;;;;;;12.58;78.61;99629.59;5026195;28;20682;-72
2023/03/23 06:01:31;;;;;;;2.93;2.20;;;;;;;12.58;78.78;99625.16;5010067;28;20264;-72
2023/03/23 06:03:59;;;;;;;3.17;1.90;;;;;;;12.54;79.29;99628.75;5021577;28;20230;-72
2023/03/23 06:06:26;;;;;;;2.00;1.80;;;;;;;12.54;79.24;99631.41;5026285;28;20204;-74
2023/03/23 06:08:51;;;;;;;3.70;1.90;;;;;;;12.52;79.54;99639.38;5023360;28;20609;-72
2023/03/23 06:11:17;;;;;;;2.80;2.03;;;;;;;12.50;79.61;99641.16;5008931;28;20222;-73
2023/03/23 06:13:45;;;;;;;4.93;2.30;;;;;;;12.45;80.14;99639.44;5024439;28;20691;-72
2023/03/23 06:16:10;;;;;;;3.43;1.90;;;;;;;12.50;80.46;99645.59;5019748;28;20202;-72
2023/03/23 06:18:36;;;;;;;2.03;1.73;;;;;;;12.53;80.70;99642.91;5022647;28;20253;-74
2023/03/23 06:21:06;;;;;;;3.20;1.93;;;;;;;12.53;80.99;99640.25;5026916;28;20320;-72
2023/03/23 06:23:31;;;;;;;2.23;1.70;;;;;;;12.57;81.04;99649.09;5021746;28;20210;-75
2023/03/23 06:26:00;;;;;;;2.20;2.00;;;;;;;12.55;81.13;99635.81;5013496;28;20219;-69
2023/03/23 06:28:26;;;;;;;2.13;1.63;;;;;;;12.55;81.06;99641.13;5020989;28;20345;-69
2023/03/23 06:30:52;;;;;;;2.80;1.83;;;;;;;12.63;80.89;99662.31;5023034;28;20223;-70
2023/03/23 06:33:18;;;;;;;3.63;1.90;;;;;;;12.69;80.46;99656.97;5022698;28;20202;-69
2023/03/23 06:35:43;;;;;;;1.90;1.70;;;;;;;12.75;80.22;99659.56;5021680;28;20485;-70
2023/03/23 06:38:09;;;;;;;5.13;2.30;;;;;;;12.77;80.46;99660.44;5023316;28;20195;-69
2023/03/23 06:40:35;;;;;;;3.30;2.37;;;;;;;12.82;80.07;99667.53;5017533;28;20222;-69
2023/03/23 06:43:01;;;;;;;5.50;2.10;;;;;;;12.81;80.38;99665.75;5018060;28;20236;-71
2023/03/23 06:45:27;;;;;;;2.67;2.20;;;;;;;12.80;80.41;99663.06;5017104;28;20232;-72
2023/03/23 06:47:52;;;;;;;3.67;2.53;;;;;;;12.83;80.50;99669.28;5023016;28;20198;-74
2023/03/23 06:50:18;;;;;;;2.67;2.10;;;;;;;12.88;80.42;99647.97;5022321;28;20270;-71
2023/03/23 06:52:48;;;;;;;2.37;2.00;;;;;;;12.97;80.21;99653.22;5021987;28;20298;-72
2023/03/23 06:55:14;;;;;;;8.07;2.30;;;;;;;12.95;80.29;99652.34;5023203;28;20556;-73
2023/03/23 06:57:40;;;;;;;4.07;2.13;;;;;;;12.91;80.39;99655.06;5022970;28;20207;-74
2023/03/23 07:00:13;;;;;;;4.13;2.10;;;;;;;12.90;80.35;99662.13;5022292;28;20242;-75
2023/03/23 07:02:40;;;;;;;4.97;2.30;;;;;;;12.89;80.80;99663.03;5024557;28;20222;-72
2023/03/23 07:05:08;;;;;;;4.70;2.00;;;;;;;12.87;80.76;99664.81;5018937;28;20203;-76
2023/03/23 07:07:35;;;;;;;4.80;2.20;;;;;;;12.86;80.98;99671.03;5022228;28;20640;-73
2023/03/23 07:10:01;;;;;;;3.90;2.17;;;;;;;12.81;81.41;99671.06;5024814;28;20226;-71
2023/03/23 07:12:27;;;;;;;3.07;2.20;;;;;;;12.92;81.19;99675.41;5034446;28;20809;-73
2023/03/23 07:14:52;;;;;;;5.50;2.50;;;;;;;12.85;81.66;99666.63;5029437;28;20222;-72
2023/03/23 07:17:18;;;;;;;4.27;2.20;;;;;;;12.82;81.91;99670.19;5034184;28;20268;-72
2023/03/23 07:19:43;;;;;;;4.10;2.40;;;;;;;12.80;81.95;99676.38;5026846;28;20245;-72
2023/03/23 07:22:08;;;;;;;4.53;2.13;;;;;;;12.80;81.96;99663.06;5011731;28;20219;-72
2023/03/23 07:24:34;;;;;;;3.87;2.50;;;;;;;12.77;82.29;99681.69;5036142;28;20194;-71
2023/03/23 07:27:00;;;;;;;7.30;2.97;;;;;;;12.81;82.65;99683.47;5023779;28;20681;-72
2023/03/23 07:29:26;;;;;;;3.63;2.73;;;;;;;12.85;82.56;99675.47;5030017;28;20270;-71
2023/03/23 07:31:52;;;;;;;6.27;2.77;;;;;;;12.96;82.04;99678.03;5029224;28;20223;-71
2023/03/23 07:34:19;;;;;;;2.80;2.30;;;;;;;13.06;81.70;99677.06;5021055;28;20271;-70
2023/03/23 07:36:44;;;;;;;4.30;2.20;;;;;;;13.29;80.74;99671.59;5025695;28;20206;-70
2023/03/23 07:39:10;;;;;;;4.57;2.40;;;;;;;13.49;79.98;99682.03;5029703;28;20200;-72
2023/03/23 07:41:35;;;;;;;5.23;2.37;;;;;;;13.56;80.13;99665.09;5027387;28;20298;-71
2023/03/23 07:44:01;;;;;;;3.57;2.13;;;;;;;13.61;79.76;99673.03;5028475;28;20619;-72
2023/03/23 07:46:26;;;;;;;4.43;2.40;;;;;;;13.66;79.55;99679.22;5030299;28;20206;-74
2023/03/23 07:48:52;;;;;;;3.73;2.20;;;;;;;13.66;79.45;99684.53;5028381;28;20204;-72
2023/03/23 07:51:17;;;;;;;5.30;2.33;;;;;;;13.64;79.59;99703.19;5029803;28;20699;-75
2023/03/23 07:53:46;;;;;;;2.53;1.93;;;;;;;13.59;79.73;99690.78;5029733;28;20595;-80
2023/03/23 07:56:14;;;;;;;3.50;2.67;;;;;;;13.52;80.14;99702.41;5031605;28;20737;-75
2023/03/23 07:58:41;;;;;;;4.23;2.33;;;;;;;13.49;80.50;99703.31;5028875;28;20291;-77
2023/03/23 08:01:07;;;;;;;5.33;2.27;;;;;;;13.49;80.52;99698.88;5026562;28;20215;-79
2023/03/23 08:03:32;;;;;;;3.40;2.17;;;;;;;13.50;80.67;99702.41;5031444;28;20575;-76
2023/03/23 08:05:59;;;;;;;7.00;2.50;;;;;;;13.56;80.77;99702.34;5029599;28;20203;-77
2023/03/23 08:08:25;;;;;;;4.90;2.37;;;;;;;13.63;80.16;99695.22;5031126;28;20208;-77
2023/03/23 08:10:50;;;;;;;3.37;2.00;;;;;;;13.79;79.30;99695.03;5031456;28;20212;-79
2023/03/23 08:13:16;;;;;;;3.17;2.20;;;;;;;13.91;79.26;99695.78;5029224;28;20221;-79
2023/03/23 08:15:41;;;;;;;3.40;2.20;;;;;;;14.04;78.08;99694.75;5024817;28;20203;-78
2023/03/23 08:18:07;;;;;;;3.83;2.30;;;;;;;14.19;77.40;99691.00;5024326;28;20230;-78
2023/03/23 08:20:33;;;;;;;4.60;2.10;;;;;;;14.29;77.15;99704.19;5032558;28;20215;-77
2023/03/23 08:22:59;;;;;;;5.90;2.17;;;;;;;14.39;76.23;99708.50;5029617;28;20656;-78
2023/03/23 08:25:25;;;;;;;3.17;2.33;;;;;;;14.45;74.99;99720.03;5028623;28;20203;-77
2023/03/23 08:27:52;;;;;;;4.03;2.30;;;;;;;14.56;74.91;99718.09;5031116;28;20612;-74
2023/03/23 08:30:19;;;;;;;2.67;1.90;;;;;;;14.52;74.89;99735.03;5024909;28;20223;-75
2023/03/23 08:32:46;;;;;;;2.57;1.80;;;;;;;14.52;74.63;99727.91;5029414;28;20205;-72
2023/03/23 08:35:13;;;;;;;4.37;2.20;;;;;;;14.71;74.13;99728.53;5027773;28;20302;-72
2023/03/23 08:37:41;;;;;;;3.00;1.93;;;;;;;14.83;73.79;99725.72;5027136;28;20577;-72
2023/03/23 08:40:11;;;;;;;5.57;2.40;;;;;;;15.27;71.99;99726.81;5029345;28;20516;-71
2023/03/23 08:42:37;;;;;;;3.37;2.10;;;;;;;15.69;70.19;99721.69;5028286;28;20211;-70
2023/03/23 08:45:05;;;;;;;4.70;2.30;;;;;;;15.94;68.48;99713.16;5023780;28;20203;-70
2023/03/23 08:47:31;;;;;;;2.30;1.90;;;;;;;16.33;66.89;99729.31;5009119;28;20218;-70
2023/03/23 08:49:56;;;;;;;3.70;2.60;;;;;;;16.42;66.39;99734.50;5028798;28;20687;-71
2023/03/23 08:52:21;;;;;;;2.57;1.67;;;;;;;16.44;65.37;99718.44;5022081;28;20310;-69
2023/03/23 08:54:47;;;;;;;2.30;1.83;;;;;;;16.57;64.91;99719.91;5030108;28;20667;-69
2023/03/23 08:57:14;;;;;;;4.13;1.70;;;;;;;16.56;64.36;99716.34;5026039;28;20195;-71
2023/03/23 08:59:41;;;;;;;2.73;1.60;;;;;;;16.64;64.17;99720.66;5025535;28;20199;-69
2023/03/23 09:02:09;;;;;;;1.70;1.60;;;;;;;16.81;63.53;99719.41;5026834;28;20731;-69
2023/03/23 09:04:35;;;;;;;3.00;2.20;;;;;;;16.89;63.21;99714.75;5027400;28;20270;-71
2023/03/23 09:07:00;;;;;;;2.80;1.80;;;;;;;16.87;62.35;99726.41;5022784;28;20680;-70
2023/03/23 09:09:26;;;;;;;3.77;2.60;;;;;;;17.01;62.49;99726.09;5029484;28;20203;-66
2023/03/23 09:11:53;;;;;;;2.63;1.90;;;;;;;17.04;62.03;99716.19;5026942;28;20253;-70
2023/03/23 09:14:18;;;;;;;1.93;1.50;;;;;;;17.15;60.58;99719.47;5028521;28;20203;-74
2023/03/23 09:16:45;;;;;;;1.83;1.20;;;;;;;17.26;59.92;99707.66;5007658;28;20200;-69
2023/03/23 09:19:12;;;;;;;2.03;1.20;;;;;;;17.36;58.70;99720.75;5023868;28;20235;-69
2023/03/23 09:21:37;;;;;;;1.47;1.27;;;;;;;17.25;58.22;99717.47;5031440;28;20227;-69
2023/03/23 09:24:04;;;;;;;2.80;1.10;;;;;;;17.31;57.70;99717.34;5024380;28;20265;-70
2023/03/23 09:26:30;;;;;;;2.27;1.10;;;;;;;17.43;57.17;99735.75;5031984;28;20283;-70
2023/03/23 09:28:56;;;;;;;2.50;1.00;;;;;;;17.30;57.01;99728.06;5027490;28;20195;-71
2023/03/23 09:31:22;;;;;;;1.47;1.00;;;;;;;17.01;57.21;99732.31;5030027;28;20692;-72
2023/03/23 09:33:51;;;;;;;1.70;1.30;;;;;;;16.89;58.36;99733.50;5019905;28;20199;-69
2023/03/23 09:36:20;;;;;;;3.13;1.00;;;;;;;16.88;58.23;99738.88;5017983;28;20196;-71
2023/03/23 09:38:46;;;;;;;2.97;1.73;;;;;;;16.92;58.95;99732.53;5018674;28;20189;-72
2023/03/23 09:41:29;;;;;;;1.00;0.83;;;;;;;16.91;59.65;99726.31;5016557;28;20285;-71
2023/03/23 09:44:01;;;;;;;0.90;0.80;;;;;;;16.88;60.30;99745.09;5021921;28;20203;-70
2023/03/23 09:47:03;;;;;;;1.77;0.83;;;;;;;16.40;60.98;99738.09;5019445;28;20207;-71
2023/03/23 09:49:38;;;;;;;1.23;0.83;;;;;;;16.30;61.17;99748.09;5004634;28;20202;-70
2023/03/23 09:52:17;;;;;;;1.10;0.80;;;;;;;16.16;61.70;99747.50;5022464;28;20337;-71
2023/03/23 09:54:47;;;;;;;4.23;0.90;;;;;;;16.08;62.48;99720.94;5025664;28;20248;-72
2023/03/23 09:57:24;;;;;;;1.50;0.87;;;;;;;15.83;62.40;99741.00;5020537;28;20265;-70
2023/03/23 10:00:29;;;;;;;2.13;1.37;;;;;;;15.93;63.46;99747.91;5021564;28;20534;-71
2023/03/23 10:03:18;;;;;;;1.67;1.10;;;;;;;16.18;64.44;99743.00;5034617;28;20192;-72
2023/03/23 10:05:54;;;;;;;1.80;1.07;;;;;;;15.96;65.68;99745.19;5023756;28;20214;-72
2023/03/23 10:08:24;;;;;;;1.47;1.00;;;;;;;16.02;66.64;99753.09;5019969;28;20187;-72
2023/03/23 10:11:17;;;;;;;1.37;0.90;;;;;;;16.20;64.19;99758.09;5018169;28;20266;-71
2023/03/23 10:14:11;;;;;;;1.57;1.10;;;;;;;16.39;64.11;99755.91;5020562;28;20690;-71
2023/03/23 10:16:41;;;;;;;1.03;0.70;;;;;;;16.22;62.33;99747.38;5022970;28;20249;-71
2023/03/23 10:19:20;;;;;;;0.93;0.90;;;;;;;16.45;62.15;99762.94;5028477;28;20698;-71
2023/03/23 10:21:52;;;;;;;2.87;0.93;;;;;;;16.45;60.76;99769.19;5026556;28;20233;-71
2023/03/23 10:24:24;;;;;;;1.00;0.90;;;;;;;16.52;60.87;99767.25;5027140;28;20682;-69
2023/03/23 10:26:58;;;;;;;1.20;1.10;;;;;;;16.54;61.00;99766.31;5024568;28;20195;-71
2023/03/23 10:29:29;;;;;;;0.80;0.80;;;;;;;16.63;59.73;99759.88;5026798;28;20278;-71
2023/03/23 10:32:01;;;;;;;1.80;0.87;;;;;;;16.56;59.70;99768.94;5025301;28;20203;-71
2023/03/23 10:34:40;;;;;;;1.53;1.00;;;;;;;16.73;58.99;99755.25;5027735;28;20239;-72
2023/03/23 10:37:15;;;;;;;1.13;1.03;;;;;;;16.46;59.35;99762.91;5025181;28;20603;-74
2023/03/23 10:39:47;;;;;;;1.30;1.10;;;;;;;16.50;59.18;99767.28;5012142;28;20826;-72
2023/03/23 10:42:21;;;;;;;1.40;0.90;;;;;;;16.66;59.48;99770.53;5008168;28;20211;-70
2023/03/23 10:44:48;;;;;;;2.03;1.00;;;;;;;16.57;59.52;99773.38;5017114;28;20222;-72
2023/03/23 10:47:15;;;;;;;1.67;1.00;;;;;;;16.54;59.67;99774.31;5018065;28;20571;-70
2023/03/23 10:49:47;;;;;;;1.83;0.90;;;;;;;16.51;59.98;99777.06;5013176;28;20609;-71
2023/03/23 10:52:38;;;;;;;2.33;1.10;;;;;;;16.45;60.08;99769.19;5017069;28;20280;-70
2023/03/23 10:55:14;;;;;;;3.47;1.00;;;;;;;16.49;60.74;99756.63;5014924;28;20206;-70
2023/03/23 10:57:42;;;;;;;1.17;0.87;;;;;;;16.79;60.52;99771.16;5008388;28;20203;-71
2023/03/23 11:00:08;;;;;;;1.00;0.90;;;;;;;16.91;59.80;99769.09;5021355;28;20200;-70
2023/03/23 11:02:43;;;;;;;2.60;1.00;;;;;;;16.99;60.55;99763.56;5015667;28;20247;-70
2023/03/23 11:05:17;;;;;;;1.97;1.37;;;;;;;17.36;60.40;99765.38;5005843;28;20215;-72
2023/03/23 11:07:51;;;;;;;4.43;1.10;;;;;;;17.48;58.89;99759.72;5019664;28;20196;-72
2023/03/23 11:10:41;;;;;;;1.40;1.00;;;;;;;17.74;58.31;99765.34;5016577;28;20284;-70
2023/03/23 11:13:14;;;;;;;1.10;1.00;;;;;;;17.66;58.38;99764.63;5021011;28;20628;-70
2023/03/23 11:15:42;;;;;;;1.50;1.10;;;;;;;17.75;58.19;99774.25;5021058;28;20239;-70
2023/03/23 11:18:18;;;;;;;3.00;1.30;;;;;;;17.90;58.29;99783.69;5021191;28;20655;-72
2023/03/23 11:20:48;;;;;;;1.80;1.30;;;;;;;17.78;58.15;99792.94;5017980;28;20649;-69
2023/03/23 11:23:26;;;;;;;1.07;0.97;;;;;;;17.52;58.20;99781.03;5021027;28;20226;-70
2023/03/23 11:26:07;;;;;;;1.03;1.00;;;;;;;17.76;58.53;99784.06;5019130;28;20203;-70
2023/03/23 11:28:35;;;;;;;1.70;0.77;;;;;;;17.85;57.12;99778.47;5015993;28;20207;-70
2023/03/23 11:31:03;;;;;;;2.90;1.10;;;;;;;17.66;57.37;99785.19;5016793;28;20222;-69
2023/03/23 11:33:35;;;;;;;3.53;1.10;;;;;;;17.45;57.84;99784.78;5018981;28;20199;-71
2023/03/23 11:36:01;;;;;;;2.13;1.47;;;;;;;17.43;57.85;99775.03;5022369;28;20198;-70
2023/03/23 11:38:29;;;;;;;1.90;1.40;;;;;;;17.40;58.86;99783.13;5017785;28;20203;-71
2023/03/23 11:40:55;;;;;;;1.27;0.90;;;;;;;17.10;58.19;99798.97;5020982;28;20227;-70
2023/03/23 11:43:26;;;;;;;1.47;1.00;;;;;;;16.56;59.63;99768.94;5018749;28;20210;-70